createdAt,value
2023-04-17T00:00:50.401Z,102181.63
2023-04-17T00:03:18.674Z,102183.44
2023-04-17T00:05:46.874Z,102179.91
2023-04-17T00:08:16.422Z,102186.97
2023-04-17T00:10:47.122Z,102180.78
2023-04-17T00:13:22.090Z,102181.63
2023-04-17T00:15:50.192Z,102183.53
2023-04-17T00:18:18.278Z,102195.97
2023-04-17T00:20:46.454Z,102187.94
2023-04-17T00:23:14.568Z,102186.31
2023-04-17T00:25:44.065Z,102194.25
2023-04-17T00:28:12.179Z,102195.97
2023-04-17T00:30:40.260Z,102190.72
2023-04-17T00:33:08.372Z,102192.31
2023-04-17T00:35:36.669Z,102196.84
2023-04-17T00:38:04.818Z,102201.31
2023-04-17T00:40:32.904Z,102204.00
2023-04-17T00:43:06.103Z,102197.91
2023-04-17T00:45:34.239Z,102196.84
2023-04-17T00:48:04.936Z,102209.25
2023-04-17T00:50:33.172Z,102208.41
2023-04-17T00:53:02.052Z,102195.97
2023-04-17T00:55:31.756Z,102201.31
2023-04-17T00:58:00.502Z,102197.69
2023-04-17T01:00:29.996Z,102215.50
2023-04-17T01:02:58.871Z,102213.75
2023-04-17T01:05:27.663Z,102207.47
2023-04-17T01:07:55.846Z,102217.31
2023-04-17T01:10:24.302Z,102213.75
2023-04-17T01:13:03.362Z,102212.91
2023-04-17T01:15:32.904Z,102217.41
2023-04-17T01:18:01.334Z,102181.25
2023-04-17T01:20:31.310Z,102219.09
2023-04-17T01:22:59.698Z,102215.69
2023-04-17T01:25:29.618Z,102217.41
2023-04-17T01:27:58.057Z,102222.75
2023-04-17T01:30:26.233Z,102220.06
2023-04-17T01:32:55.399Z,102219.09
2023-04-17T01:35:24.080Z,102212.03
2023-04-17T01:37:52.312Z,102219.09
2023-04-17T01:40:20.432Z,102217.41
2023-04-17T01:42:49.948Z,102213.75
2023-04-17T01:45:18.017Z,102216.66
2023-04-17T01:47:46.092Z,102219.09
2023-04-17T01:50:14.650Z,102222.75
2023-04-17T01:52:42.696Z,102221.78
2023-04-17T01:55:11.424Z,102217.41
2023-04-17T01:57:39.637Z,102217.41
2023-04-17T02:00:11.227Z,102219.09
2023-04-17T02:02:39.388Z,102220.06
2023-04-17T02:05:08.426Z,102213.97
2023-04-17T02:07:36.492Z,102221.78
2023-04-17T02:10:04.735Z,102217.41
2023-04-17T02:12:32.817Z,102224.47
2023-04-17T02:15:01.437Z,102217.41
2023-04-17T02:17:30.942Z,102212.22
2023-04-17T02:19:59.040Z,102228.09
2023-04-17T02:22:27.076Z,102223.72
2023-04-17T02:24:55.113Z,102227.25
2023-04-17T02:27:23.427Z,102225.63
2023-04-17T02:29:51.572Z,102226.59
2023-04-17T02:32:19.664Z,102226.50
2023-04-17T02:34:49.125Z,102235.41
2023-04-17T02:37:17.177Z,102230.88
2023-04-17T02:39:45.207Z,102236.25
2023-04-17T02:42:13.694Z,102242.47
2023-04-17T02:44:41.721Z,102242.47
2023-04-17T02:47:09.768Z,102233.66
2023-04-17T02:49:37.873Z,102242.47
2023-04-17T02:52:07.397Z,102244.19
2023-04-17T02:54:35.430Z,102244.19
2023-04-17T02:57:03.531Z,102243.31
2023-04-17T02:59:31.534Z,102248.00
2023-04-17T03:02:00.710Z,102243.31
2023-04-17T03:04:28.867Z,102248.00
2023-04-17T03:06:57.014Z,102230.44
2023-04-17T03:09:26.473Z,102243.31
2023-04-17T03:11:54.540Z,102247.81
2023-04-17T03:14:22.568Z,102249.53
2023-04-17T03:16:50.685Z,102249.63
2023-04-17T03:19:18.872Z,102251.47
2023-04-17T03:21:47.216Z,102253.19
2023-04-17T03:24:15.281Z,102251.47
2023-04-17T03:26:44.755Z,102262.19
2023-04-17T03:29:13.026Z,102251.47
2023-04-17T03:31:41.187Z,102260.25
2023-04-17T03:34:09.463Z,102257.66
2023-04-17T03:36:37.550Z,102244.75
2023-04-17T03:39:05.733Z,102263.13
2023-04-17T03:41:33.900Z,102262.19
2023-04-17T03:44:03.256Z,102268.28
2023-04-17T03:46:31.598Z,102286.16
2023-04-17T03:48:59.642Z,102265.78
2023-04-17T03:51:28.737Z,102272.91
2023-04-17T03:53:57.105Z,102274.78
2023-04-17T03:56:25.855Z,102279.09
2023-04-17T03:58:53.889Z,102286.38
2023-04-17T04:01:23.746Z,102286.16
2023-04-17T04:03:52.227Z,102295.16
2023-04-17T04:06:20.463Z,102288.97
2023-04-17T04:08:48.469Z,102294.31
2023-04-17T04:11:16.561Z,102297.00
2023-04-17T04:13:44.616Z,102297.09
2023-04-17T04:16:12.741Z,102310.25
2023-04-17T04:18:43.410Z,102313.81
2023-04-17T04:21:12.364Z,102324.53
2023-04-17T04:23:41.413Z,102324.53
2023-04-17T04:26:09.732Z,102321.94
2023-04-17T04:28:38.257Z,102328.16
2023-04-17T04:31:07.034Z,102342.31
2023-04-17T04:33:35.367Z,102334.28
2023-04-17T04:36:04.877Z,102341.47
2023-04-17T04:38:33.269Z,102335.44
2023-04-17T04:41:06.416Z,102346.81
2023-04-17T04:43:35.643Z,102339.72
2023-04-17T04:46:03.992Z,102347.88
2023-04-17T04:48:32.048Z,102356.66
2023-04-17T04:51:00.260Z,102357.53
2023-04-17T04:53:29.962Z,102354.94
2023-04-17T04:55:57.969Z,102366.50
2023-04-17T04:58:26.054Z,102367.38
2023-04-17T05:00:54.393Z,102365.66
2023-04-17T05:03:23.440Z,102372.72
2023-04-17T05:05:51.654Z,102367.56
2023-04-17T05:08:20.432Z,102375.50
2023-04-17T05:10:49.968Z,102382.78
2023-04-17T05:13:17.997Z,102382.69
2023-04-17T05:15:46.114Z,102385.38
2023-04-17T05:18:14.103Z,102385.38
2023-04-17T05:20:42.156Z,102392.44
2023-04-17T05:23:10.487Z,102390.72
2023-04-17T05:25:38.571Z,102390.72
2023-04-17T05:28:09.319Z,102399.53
2023-04-17T05:30:37.366Z,102401.44
2023-04-17T05:33:05.510Z,102398.66
2023-04-17T05:35:33.540Z,102404.97
2023-04-17T05:38:01.547Z,102410.22
2023-04-17T05:40:29.569Z,102404.88
2023-04-17T05:42:57.593Z,102406.81
2023-04-17T05:45:27.228Z,102414.72
2023-04-17T05:47:55.305Z,102413.88
2023-04-17T05:50:23.602Z,102407.75
2023-04-17T05:52:51.718Z,102412.16
2023-04-17T05:55:20.207Z,102417.53
2023-04-17T05:57:48.365Z,102424.59
2023-04-17T06:00:17.248Z,102417.53
2023-04-17T06:02:46.968Z,102428.22
2023-04-17T06:05:16.628Z,102422.88
2023-04-17T06:07:44.888Z,102426.41
2023-04-17T06:10:12.958Z,102419.50
2023-04-17T06:12:41.227Z,102412.34
2023-04-17T06:15:10.331Z,102422.88
2023-04-17T06:17:39.454Z,102422.88
2023-04-17T06:20:11.351Z,102423.06
2023-04-17T06:22:40.697Z,102423.81
2023-04-17T06:25:09.618Z,102428.41
2023-04-17T06:27:37.760Z,102422.88
2023-04-17T06:30:06.935Z,102430.91
2023-04-17T06:32:35.114Z,102432.72
2023-04-17T06:35:03.347Z,102432.81
2023-04-17T06:37:32.819Z,102449.66
2023-04-17T06:40:01.232Z,102440.84
2023-04-17T06:42:29.282Z,102438.16
2023-04-17T06:44:57.440Z,102446.84
2023-04-17T06:47:25.625Z,102455.75
2023-04-17T06:49:53.745Z,102446.84
2023-04-17T06:52:22.270Z,102449.66
2023-04-17T06:54:51.895Z,102455.00
2023-04-17T06:57:20.027Z,102456.72
2023-04-17T06:59:48.245Z,102456.72
2023-04-17T07:02:16.634Z,102465.72
2023-04-17T07:04:44.879Z,102455.84
2023-04-17T07:07:13.216Z,102463.06
2023-04-17T07:09:43.034Z,102468.41
2023-04-17T07:12:12.605Z,102459.50
2023-04-17T07:14:40.817Z,102460.38
2023-04-17T07:17:09.016Z,102460.38
2023-04-17T07:19:37.307Z,102458.72
2023-04-17T07:22:05.874Z,102471.84
2023-04-17T07:24:35.227Z,102474.50
2023-04-17T07:27:03.517Z,102468.28
2023-04-17T07:29:33.047Z,102464.69
2023-04-17T07:32:01.114Z,102469.16
2023-04-17T07:34:31.216Z,102474.50
2023-04-17T07:36:59.276Z,102474.50
2023-04-17T07:39:31.591Z,102480.84
2023-04-17T07:41:59.777Z,102486.94
2023-04-17T07:44:27.815Z,102480.75
2023-04-17T07:46:57.269Z,102479.88
2023-04-17T07:49:25.407Z,102492.31
2023-04-17T07:51:53.490Z,102490.59
2023-04-17T07:54:21.513Z,102479.56
2023-04-17T07:56:50.713Z,102497.66
2023-04-17T07:59:18.827Z,102499.41
2023-04-17T08:01:46.882Z,102503.00
2023-04-17T08:04:17.095Z,102510.13
2023-04-17T08:06:45.563Z,102501.31
2023-04-17T08:09:13.986Z,102497.66
2023-04-17T08:11:56.208Z,102501.13
2023-04-17T08:14:25.559Z,102497.66
2023-04-17T08:16:53.762Z,102503.00
2023-04-17T08:19:23.206Z,102499.41
2023-04-17T08:21:51.944Z,102504.75
2023-04-17T08:24:20.254Z,102490.09
2023-04-17T08:26:49.029Z,102496.63
2023-04-17T08:29:18.343Z,102506.47
2023-04-17T08:31:46.414Z,102495.75
2023-04-17T08:34:15.548Z,102495.75
2023-04-17T08:36:46.352Z,102494.88
2023-04-17T08:39:16.449Z,102495.94
2023-04-17T08:41:50.495Z,102495.94
2023-04-17T08:44:21.598Z,102498.63
2023-04-17T08:46:50.745Z,102464.22
2023-04-17T08:49:18.825Z,102496.81
2023-04-17T08:51:48.293Z,102504.75
2023-04-17T08:54:16.386Z,102484.25
2023-04-17T08:56:44.586Z,102492.31
2023-04-17T08:59:12.860Z,102491.38
2023-04-17T09:01:41.057Z,102494.88
2023-04-17T09:04:09.337Z,102501.13
2023-04-17T09:06:53.085Z,102492.31
2023-04-17T09:09:21.136Z,102496.72
2023-04-17T09:12:10.257Z,102473.16
2023-04-17T09:14:38.319Z,102486.94
2023-04-17T09:17:06.522Z,102487.16
2023-04-17T09:19:35.353Z,102494.97
2023-04-17T09:22:21.668Z,102500.34
2023-04-17T09:24:49.907Z,102495.94
2023-04-17T09:27:22.497Z,102496.81
2023-04-17T09:30:02.648Z,102502.19
2023-04-17T09:32:31.782Z,102492.31
2023-04-17T09:35:01.733Z,102497.66
2023-04-17T09:37:50.911Z,102499.41
2023-04-17T09:40:20.006Z,102499.41
2023-04-17T09:42:59.007Z,102510.13
2023-04-17T09:45:33.217Z,102510.13
2023-04-17T09:48:01.492Z,102503.00
2023-04-17T09:50:30.356Z,102512.97
2023-04-17T09:52:59.983Z,102513.72
2023-04-17T09:55:30.286Z,102504.75
2023-04-17T09:58:00.247Z,102515.47
2023-04-17T10:00:29.468Z,102510.97
2023-04-17T10:02:59.338Z,102514.50
2023-04-17T10:05:30.276Z,102515.38
2023-04-17T10:08:00.175Z,102517.19
2023-04-17T10:10:32.360Z,102510.13
2023-04-17T10:13:03.779Z,102516.22
2023-04-17T10:15:32.445Z,102513.56
2023-04-17T10:18:23.237Z,102513.56
2023-04-17T10:20:53.326Z,102513.56
2023-04-17T10:23:33.949Z,102510.88
2023-04-17T10:26:38.144Z,102524.25
2023-04-17T10:29:06.379Z,102522.56
2023-04-17T10:32:25.508Z,102518.91
2023-04-17T10:34:54.640Z,102522.56
2023-04-17T10:37:23.429Z,102506.66
2023-04-17T10:39:57.715Z,102516.31
2023-04-17T10:42:28.041Z,102507.44
2023-04-17T10:45:00.264Z,102508.38
2023-04-17T10:47:36.202Z,102515.66
2023-04-17T10:50:05.677Z,102465.31
2023-04-17T10:52:42.139Z,102520.84
2023-04-17T10:55:16.138Z,102507.78
2023-04-17T10:58:02.216Z,102515.47
2023-04-17T11:00:34.938Z,102515.47
2023-04-17T11:03:04.297Z,102515.47
2023-04-17T11:05:33.138Z,102516.31
2023-04-17T11:08:01.227Z,102518.06
2023-04-17T11:10:30.880Z,102506.47
2023-04-17T11:12:58.911Z,102503.81
2023-04-17T11:15:28.908Z,102508.19
2023-04-17T11:17:58.043Z,102513.56
2023-04-17T11:20:27.486Z,102513.56
2023-04-17T11:22:55.563Z,102504.59
2023-04-17T11:25:25.408Z,102497.47
2023-04-17T11:27:57.200Z,102503.72
2023-04-17T11:30:27.194Z,102498.44
2023-04-17T11:32:55.435Z,102513.56
2023-04-17T11:35:28.612Z,102518.91
2023-04-17T11:38:11.572Z,102468.53
2023-04-17T11:40:47.611Z,102509.94
2023-04-17T11:43:18.137Z,102508.19
2023-04-17T11:45:47.666Z,102511.75
2023-04-17T11:48:17.131Z,102508.19
2023-04-17T11:50:45.845Z,102518.06
2023-04-17T11:53:16.376Z,102514.44
2023-04-17T11:55:45.035Z,102509.94
2023-04-17T11:58:14.277Z,102517.97
2023-04-17T12:00:43.865Z,102523.34
2023-04-17T12:03:35.112Z,102529.63
2023-04-17T12:06:05.970Z,102524.25
2023-04-17T12:08:44.125Z,102530.50
2023-04-17T12:11:29.841Z,102520.66
2023-04-17T12:13:58.306Z,102510.88
2023-04-17T12:16:29.485Z,102522.47
2023-04-17T12:18:57.914Z,102524.25
2023-04-17T12:21:25.982Z,102526.00
2023-04-17T12:23:54.063Z,102526.84
2023-04-17T12:26:22.163Z,102524.09
2023-04-17T12:28:50.991Z,102532.13
2023-04-17T12:31:19.070Z,102524.09
2023-04-17T12:33:48.557Z,102527.91
2023-04-17T12:36:16.617Z,102526.19
2023-04-17T12:38:44.639Z,102526.19
2023-04-17T12:41:12.799Z,102522.56
2023-04-17T12:43:40.842Z,102530.59
2023-04-17T12:46:08.952Z,102529.78
2023-04-17T12:48:37.162Z,102531.53
2023-04-17T12:51:07.045Z,102526.19
2023-04-17T12:53:35.103Z,102531.53
2023-04-17T12:56:03.914Z,102522.72
2023-04-17T12:58:32.360Z,102522.56
2023-04-17T13:01:00.459Z,102522.47
2023-04-17T13:03:28.724Z,102536.72
2023-04-17T13:05:56.976Z,102521.59
2023-04-17T13:08:26.377Z,102537.66
2023-04-17T13:10:54.397Z,102535.06
2023-04-17T13:13:22.430Z,102534.97
2023-04-17T13:15:50.808Z,102534.97
2023-04-17T13:18:18.862Z,102531.38
2023-04-17T13:20:46.894Z,102527.03
2023-04-17T13:23:14.921Z,102534.22
2023-04-17T13:25:44.365Z,102531.38
2023-04-17T13:28:12.425Z,102533.19
2023-04-17T13:30:40.701Z,102531.38
2023-04-17T13:33:09.049Z,102531.38
2023-04-17T13:35:37.168Z,102535.75
2023-04-17T13:38:05.536Z,102538.44
2023-04-17T13:40:33.663Z,102535.75
2023-04-17T13:43:03.164Z,102536.56
2023-04-17T13:45:31.279Z,102530.31
2023-04-17T13:48:00.380Z,102534.97
2023-04-17T13:50:28.770Z,102533.09
2023-04-17T13:52:56.890Z,102533.09
2023-04-17T13:55:25.256Z,102533.97
2023-04-17T13:57:54.281Z,102540.16
2023-04-17T14:00:23.980Z,102520.84
2023-04-17T14:02:52.249Z,102532.22
2023-04-17T14:05:20.522Z,102525.84
2023-04-17T14:07:48.934Z,102524.88
2023-04-17T14:10:17.081Z,102527.53
2023-04-17T14:12:45.141Z,102521.31
2023-04-17T14:15:14.071Z,102517.97
2023-04-17T14:17:43.997Z,102527.72
2023-04-17T14:20:15.147Z,102520.56
2023-04-17T14:22:43.317Z,102526.75
2023-04-17T14:25:11.708Z,102533.97
2023-04-17T14:27:39.950Z,102543.81
2023-04-17T14:30:09.286Z,102536.72
2023-04-17T14:32:40.189Z,102521.50
2023-04-17T14:35:10.659Z,102531.19
2023-04-17T14:37:38.898Z,102524.97
2023-04-17T14:40:08.432Z,102531.19
2023-04-17T14:42:47.486Z,102531.19
2023-04-17T14:45:22.215Z,102530.31
2023-04-17T14:47:50.457Z,102530.31
2023-04-17T14:50:20.285Z,102524.44
2023-04-17T14:52:48.454Z,102524.97
2023-04-17T14:55:16.677Z,102531.19
2023-04-17T14:57:44.972Z,102525.84
2023-04-17T15:00:14.075Z,102531.19
2023-04-17T15:02:42.404Z,102528.50
2023-04-17T15:05:11.485Z,102532.03
2023-04-17T15:07:40.968Z,102521.41
2023-04-17T15:10:09.703Z,102522.19
2023-04-17T15:12:37.807Z,102513.56
2023-04-17T15:15:07.492Z,102529.44
2023-04-17T15:17:35.855Z,102529.44
2023-04-17T15:20:04.227Z,102534.81
2023-04-17T15:22:32.444Z,102491.47
2023-04-17T15:25:01.966Z,102535.69
2023-04-17T15:27:30.102Z,102532.13
2023-04-17T15:29:58.282Z,102536.56
2023-04-17T15:32:26.830Z,102525.84
2023-04-17T15:34:55.025Z,102531.19
2023-04-17T15:37:23.257Z,102528.50
2023-04-17T15:39:51.448Z,102522.19
2023-04-17T15:42:22.658Z,102526.50
2023-04-17T15:44:50.975Z,102525.47
2023-04-17T15:47:19.049Z,102530.66
2023-04-17T15:49:48.192Z,102442.47
2023-04-17T15:52:16.575Z,102532.97
2023-04-17T15:54:44.668Z,102545.41
2023-04-17T15:57:12.760Z,102532.00
2023-04-17T15:59:42.244Z,102523.19
2023-04-17T16:02:12.417Z,102492.31
2023-04-17T16:04:42.985Z,102533.72
2023-04-17T16:07:14.176Z,102530.13
2023-04-17T16:09:44.587Z,102540.84
2023-04-17T16:12:12.858Z,102536.31
2023-04-17T16:14:42.363Z,102540.84
2023-04-17T16:17:10.459Z,102538.91
2023-04-17T16:19:38.555Z,102553.28
2023-04-17T16:22:06.680Z,102544.44
2023-04-17T16:24:34.789Z,102555.16
2023-04-17T16:27:03.072Z,102546.38
2023-04-17T16:29:31.217Z,102557.09
2023-04-17T16:32:00.812Z,102555.34
2023-04-17T16:34:28.992Z,102565.22
2023-04-17T16:36:57.004Z,102548.81
2023-04-17T16:39:25.784Z,102566.25
2023-04-17T16:41:53.819Z,102561.06
2023-04-17T16:44:22.324Z,102568.16
2023-04-17T16:49:22.875Z,102573.53
2023-04-17T16:51:51.088Z,102571.78
2023-04-17T16:54:20.608Z,102577.13
2023-04-17T16:56:49.214Z,102571.78
2023-04-17T16:59:17.626Z,102573.53
2023-04-17T17:01:47.124Z,102573.53
2023-04-17T17:04:15.249Z,102577.13
2023-04-17T17:06:44.749Z,102577.13
2023-04-17T17:09:13.013Z,102572.81
2023-04-17T17:11:41.355Z,102577.13
2023-04-17T17:14:09.370Z,102564.09
2023-04-17T17:16:37.619Z,102575.41
2023-04-17T17:19:06.011Z,102576.38
2023-04-17T17:21:34.363Z,102576.72
2023-04-17T17:24:03.782Z,102588.03
2023-04-17T17:26:31.864Z,102592.44
2023-04-17T17:28:59.975Z,102589.78
2023-04-17T17:31:28.048Z,102595.13
2023-04-17T17:33:57.790Z,102595.97
2023-04-17T17:36:27.074Z,102605.84
2023-04-17T17:38:56.506Z,102609.38
2023-04-17T17:41:26.179Z,102604.09
2023-04-17T17:43:56.227Z,102616.66
2023-04-17T17:46:25.484Z,102613.78
2023-04-17T17:48:53.606Z,102609.06
2023-04-17T17:51:23.537Z,102612.22
2023-04-17T17:53:51.634Z,102621.94
2023-04-17T17:56:20.829Z,102630.88
2023-04-17T17:58:51.045Z,102627.28
2023-04-17T18:01:19.240Z,102630.88
2023-04-17T18:03:49.584Z,102626.50
2023-04-17T18:06:18.274Z,102635.41
2023-04-17T18:08:46.348Z,102638.94
2023-04-17T18:11:14.488Z,102645.25
2023-04-17T18:13:42.536Z,102639.88
2023-04-17T18:16:12.075Z,102647.94
2023-04-17T18:18:40.177Z,102641.94
2023-04-17T18:21:08.644Z,102655.09
2023-04-17T18:23:37.016Z,102624.19
2023-04-17T18:26:05.235Z,102654.25
2023-04-17T18:28:34.207Z,102653.53
2023-04-17T18:31:02.240Z,102665.88
2023-04-17T18:33:31.869Z,102668.56
2023-04-17T18:35:59.911Z,102671.25
2023-04-17T18:38:27.920Z,102668.56
2023-04-17T18:40:57.494Z,102637.50
2023-04-17T18:43:25.862Z,102672.22
2023-04-17T18:45:54.008Z,102677.56
2023-04-17T18:48:22.217Z,102639.53
2023-04-17T18:50:51.735Z,102686.56
2023-04-17T18:53:19.794Z,102684.81
2023-04-17T18:55:47.834Z,102682.13
2023-04-17T18:58:15.884Z,102679.47
2023-04-17T19:00:43.991Z,102688.47
2023-04-17T19:03:12.062Z,102693.81
2023-04-17T19:05:40.189Z,102695.53
2023-04-17T19:08:10.011Z,102699.97
2023-04-17T19:10:39.906Z,102708.00
2023-04-17T19:13:09.879Z,102705.31
2023-04-17T19:15:38.055Z,102713.34
2023-04-17T19:18:06.828Z,102677.75
2023-04-17T19:20:34.985Z,102716.13
2023-04-17T19:23:03.073Z,102708.00
2023-04-17T19:25:32.524Z,102726.75
2023-04-17T19:28:00.702Z,102733.03
2023-04-17T19:30:28.784Z,102725.00
2023-04-17T19:32:56.970Z,102721.47
2023-04-17T19:35:26.192Z,102722.31
2023-04-17T19:37:54.279Z,102722.31
2023-04-17T19:40:25.637Z,102730.34
2023-04-17T19:42:56.316Z,102732.19
2023-04-17T19:45:24.540Z,102720.78
2023-04-17T19:47:56.931Z,102725.97
2023-04-17T19:50:26.486Z,102723.44
2023-04-17T19:52:54.716Z,102711.28
2023-04-17T19:55:22.916Z,102726.91
2023-04-17T19:57:52.299Z,102740.31
2023-04-17T20:00:21.913Z,102733.19
2023-04-17T20:02:50.228Z,102740.47
2023-04-17T20:05:18.646Z,102743.00
2023-04-17T20:07:46.799Z,102746.50
2023-04-17T20:10:14.877Z,102737.72
2023-04-17T20:12:43.011Z,102742.03
2023-04-17T20:15:12.006Z,102745.66
2023-04-17T20:17:41.534Z,102752.75
2023-04-17T20:20:10.675Z,102751.88
2023-04-17T20:22:39.701Z,102752.75
2023-04-17T20:25:08.394Z,102756.38
2023-04-17T20:27:36.509Z,102755.44
2023-04-17T20:30:05.103Z,102760.94
2023-04-17T20:32:33.275Z,102761.75
2023-04-17T20:35:03.799Z,102728.09
2023-04-17T20:37:31.868Z,102765.34
2023-04-17T20:39:59.962Z,102764.41
2023-04-17T20:42:28.119Z,102765.34
2023-04-17T20:44:56.226Z,102763.63
2023-04-17T20:47:24.445Z,102772.53
2023-04-17T20:49:52.620Z,102770.78
2023-04-17T20:52:22.144Z,102772.47
2023-04-17T20:54:50.249Z,102782.28
2023-04-17T20:57:18.376Z,102776.94
2023-04-17T20:59:46.542Z,102778.75
2023-04-17T21:02:15.104Z,102781.41
2023-04-17T21:04:43.536Z,102752.34
2023-04-17T21:07:11.645Z,102788.53
2023-04-17T21:09:41.122Z,102788.53
2023-04-17T21:12:09.376Z,102788.53
2023-04-17T21:14:37.885Z,102787.75
2023-04-17T21:17:06.018Z,102790.41
2023-04-17T21:19:37.013Z,102798.44
2023-04-17T21:22:05.205Z,102803.81
2023-04-17T21:24:33.422Z,102795.78
2023-04-17T21:27:02.880Z,102793.97
2023-04-17T21:29:31.035Z,102790.41
2023-04-17T21:31:59.689Z,102792.13
2023-04-17T21:34:28.300Z,102787.75
2023-04-17T21:36:56.412Z,102795.78
2023-04-17T21:39:24.550Z,102790.41
2023-04-17T21:41:52.917Z,102790.59
2023-04-17T21:44:22.325Z,102802.84
2023-04-17T21:46:50.583Z,102798.44
2023-04-17T21:49:18.863Z,102795.78
2023-04-17T21:51:46.907Z,102802.84
2023-04-17T21:54:15.069Z,102809.25
2023-04-17T21:56:43.255Z,102806.50
2023-04-17T21:59:11.304Z,102808.22
2023-04-17T22:01:40.802Z,102803.03
2023-04-17T22:04:08.936Z,102817.19
2023-04-17T22:06:37.542Z,102818.94
2023-04-17T22:09:05.813Z,102819.81
2023-04-17T22:11:33.867Z,102818.94
2023-04-17T22:14:01.924Z,102825.16
2023-04-17T22:16:29.977Z,102821.69
2023-04-17T22:18:59.479Z,102822.56
2023-04-17T22:21:27.992Z,102824.28
2023-04-17T22:23:55.985Z,102831.56
2023-04-17T22:26:24.034Z,102837.69
2023-04-17T22:28:52.115Z,102843.03
2023-04-17T22:31:21.168Z,102845.72
2023-04-17T22:33:49.240Z,102845.72
2023-04-17T22:36:18.663Z,102851.06
2023-04-17T22:38:46.646Z,102844.88
2023-04-17T22:41:14.732Z,102841.22
2023-04-17T22:43:42.743Z,102845.72
2023-04-17T22:46:10.830Z,102840.34
2023-04-17T22:48:40.675Z,102839.50
2023-04-17T22:51:09.812Z,102844.00
2023-04-17T22:53:39.351Z,102845.72
2023-04-17T22:56:07.645Z,102820.63
2023-04-17T22:58:36.253Z,102851.06
2023-04-17T23:01:04.524Z,102851.06
2023-04-17T23:03:32.634Z,102851.06
2023-04-17T23:06:00.665Z,102846.66
2023-04-17T23:08:31.336Z,102844.00
2023-04-17T23:11:03.393Z,102821.91
2023-04-17T23:13:31.854Z,102865.41
2023-04-17T23:15:59.902Z,102860.06
2023-04-17T23:18:27.965Z,102860.06
2023-04-17T23:20:56.003Z,102862.75
2023-04-17T23:23:24.035Z,102865.41
2023-04-17T23:25:52.210Z,102861.03
2023-04-17T23:28:21.832Z,102872.50
2023-04-17T23:30:49.877Z,102869.06
2023-04-17T23:33:17.959Z,102874.09
2023-04-17T23:35:46.029Z,102870.28
2023-04-17T23:38:14.152Z,102873.94
2023-04-17T23:40:42.242Z,102875.66
2023-04-17T23:43:10.308Z,102882.72
2023-04-17T23:45:39.893Z,102882.72
2023-04-17T23:48:08.034Z,102883.69
2023-04-17T23:50:36.150Z,102888.09
2023-04-17T23:53:04.266Z,102895.22
2023-04-17T23:55:32.341Z,102882.72
2023-04-17T23:58:00.397Z,102893.63
